• Join FlightAware (Why Join?)
  • Login
  • US Flag 
07:34AM EDT


 

Airport Tracker/Info


-or-


 

Live Flight TrackerFlight Track Log ✈ N1570N ✈ 29-Jul-2014 ✈ KTUL - KBPK

Flight Track Log - Related Links

Times and Time Zones

All times are in EDT time to prevent confusion due to time zone crossing. See the N1570N flight status page for this flight to view local times or setup timezone preferences in your user account.

Time Position Orientation Groundspeed Altitude Reporting Facility
EDT Latitude Longitude Course Direction KTS MPH feet Rate Location/Type
04:48PM 36.2111 -95.8769 68° East 115 132 1,300  Level Kansas City Center
04:49PM 36.2228 -95.8417 57° Northeast 118 136 2,600 1,140 Climbing Kansas City Center
04:50PM 36.2197 -95.8181 99° East 119 137 3,300 1,200 Climbing Kansas City Center
04:50PM 36.2175 -95.8036 101° East 124 143 3,700 1,200 Climbing Kansas City Center
04:51PM 36.2100 -95.7683 105° East 124 143 4,700 840 Climbing Kansas City Center
04:52PM 36.2019 -95.7336 106° East 126 145 5,300 780 Climbing Kansas City Center
04:53PM 36.1881 -95.6831 109° East 141 162 6,300 900 Climbing Kansas City Center
04:54PM 36.1772 -95.6303 104° East 146 168 7,200 360 Climbing Kansas City Center
04:55PM 36.1614 -95.5703 108° East 197 227 7,100 -60 Descending Kansas City Center
04:56PM 36.1467 -95.5033 105° East 196 226 7,100  Level Kansas City Center
04:57PM 36.1286 -95.4375 109° East 203 234 7,100  Level Kansas City Center
04:58PM 36.1092 -95.3600 107° East 204 235 7,100  Level Kansas City Center
04:59PM 36.0944 -95.2922 105° East 204 235 7,100  Level Kansas City Center
05:00PM 36.0792 -95.2228 105° East 203 234 7,100  Level Kansas City Center
05:01PM 36.0631 -95.1553 106° East 203 234 7,100  Level Kansas City Center
05:02PM 36.0464 -95.0881 107° East 203 234 7,100  Level Kansas City Center
05:03PM 36.0303 -95.0219 107° East 203 234 7,100  Level Kansas City Center
05:04PM 36.0222 -94.9403 97° East 210 242 7,100  Level Kansas City Center
05:05PM 36.0369 -94.8758 74° East 203 234 7,100  Level Kansas City Center
05:06PM 36.0508 -94.8114 75° East 199 229 7,100  Level Memphis Center
05:07PM 36.0608 -94.7447 79° East 199 229 7,100  Level Memphis Center
05:08PM 36.0719 -94.6678 80° East 196 226 7,100  Level Memphis Center
05:09PM 36.0808 -94.6019 80° East 195 224 7,100  Level Memphis Center
05:10PM 36.0903 -94.5375 80° East 195 224 7,100  Level Memphis Center
05:11PM 36.0994 -94.4722 80° East 194 223 7,100  Level Memphis Center
05:13PM 36.1083 -94.4072 80° East 194 223 7,100  Level Memphis Center
05:14PM 36.1181 -94.3422 79° East 194 223 7,100  Level Memphis Center
05:15PM 36.1294 -94.2633 80° East 194 223 7,100  Level Memphis Center
05:16PM 36.1383 -94.1989 80° East 193 222 7,100  Level Memphis Center
05:17PM 36.1467 -94.1342 81° East 193 222 7,100  Level Memphis Center
05:18PM 36.1569 -94.0692 79° East 193 222 7,100  Level Memphis Center
05:19PM 36.1650 -94.0086 81° East 193 222 7,100  Level Memphis Center
05:20PM 36.1739 -93.9386 81° East 193 222 7,100  Level Memphis Center
05:21PM 36.1861 -93.8581 79° East 194 223 7,100  Level Memphis Center
05:22PM 36.1947 -93.7933 81° East 194 223 7,100  Level Memphis Center
05:23PM 36.2042 -93.7283 80° East 194 223 7,100  Level Memphis Center
05:24PM 36.2122 -93.6681 81° East 193 222 7,100  Level Memphis Center
05:25PM 36.2214 -93.6044 80° East 190 219 7,100  Level Memphis Center
05:26PM 36.2317 -93.5283 80° East 190 219 7,100  Level Memphis Center
05:27PM 36.2397 -93.4617 81° East 190 219 7,100  Level Memphis Center
05:28PM 36.2492 -93.3953 80° East 191 220 7,100 -60 Level Memphis Center
05:29PM 36.2578 -93.3269 81° East 196 226 7,000 -60 Descending Memphis Center
05:30PM 36.2675 -93.2581 80° East 199 229 7,000 -120 Level Memphis Center
05:31PM 36.2767 -93.1894 81° East 200 230 6,800 -540 Descending Memphis Center
05:32PM 36.2881 -93.1050 80° East 202 232 6,000 -720 Descending Memphis Center
05:33PM 36.2967 -93.0319 82° East 208 239 5,400 -540 Descending Memphis Center
05:34PM 36.3053 -92.9589 82° East 208 239 4,900 -540 Descending Memphis Center